Time;durP1;ratioP1;P1;durP2;ratioP2;P2;SDS_P1;SDS_P2;PMS_P1;PMS_P2;Temp;Humidity;BMP_temperature;BMP_pressure;BME280_temperature;BME280_humidity;BME280_pressure;Samples;Min_cycle;Max_cycle;Signal;HPM_P1;HPM_P2
2023/03/22 00:00:22;;;;;;;8.20;5.43;;;;;;;7.72;100.00;96315.75;10368850;28;20564;-62
2023/03/22 00:05:22;;;;;;;13.33;5.80;;;;;;;7.68;100.00;96308.22;10375613;28;20630;-62
2023/03/22 00:10:27;;;;;;;13.63;5.40;;;;;;;7.83;100.00;96300.72;10372791;28;20225;-63
2023/03/22 00:15:28;;;;;;;12.37;5.50;;;;;;;7.73;100.00;96286.09;10375276;28;20222;-62
2023/03/22 00:20:35;;;;;;;8.17;4.70;;;;;;;7.75;100.00;96285.00;10375623;28;20188;-60
2023/03/22 00:25:36;;;;;;;7.23;4.60;;;;;;;7.79;100.00;96285.50;10371932;28;20228;-61
2023/03/22 00:30:36;;;;;;;13.13;5.57;;;;;;;7.81;100.00;96278.34;10371754;28;20193;-63
2023/03/22 00:35:37;;;;;;;9.20;4.90;;;;;;;7.84;100.00;96268.47;10373568;28;20336;-63
2023/03/22 00:40:37;;;;;;;6.17;4.40;;;;;;;8.01;100.00;96258.16;10374534;28;20541;-63
2023/03/22 00:45:39;;;;;;;7.63;4.20;;;;;;;8.09;100.00;96244.34;10374080;28;20598;-63
2023/03/22 00:50:40;;;;;;;7.87;4.73;;;;;;;8.17;100.00;96236.56;10374317;28;20676;-62
2023/03/22 00:55:41;;;;;;;5.93;4.47;;;;;;;8.11;100.00;96230.16;10373854;28;20227;-62
2023/03/22 01:00:43;;;;;;;11.00;4.10;;;;;;;8.10;100.00;96228.56;10373063;28;20189;-61
2023/03/22 01:05:44;;;;;;;9.50;4.50;;;;;;;7.97;100.00;96220.31;10369885;28;20197;-62
2023/03/22 01:10:45;;;;;;;6.80;3.90;;;;;;;7.96;100.00;96216.88;10411398;28;20271;-62
2023/03/22 01:15:49;;;;;;;7.00;4.17;;;;;;;7.95;100.00;96224.88;10414228;28;20229;-61
2023/03/22 01:20:50;;;;;;;7.10;4.23;;;;;;;7.99;100.00;96221.78;10396153;28;20181;-63
2023/03/22 01:25:50;;;;;;;4.57;3.33;;;;;;;7.87;100.00;96209.94;10413700;28;20197;-62
2023/03/22 01:30:51;;;;;;;9.20;3.70;;;;;;;7.79;100.00;96202.06;10396313;28;20651;-62
2023/03/22 01:35:51;;;;;;;8.23;4.07;;;;;;;7.66;100.00;96199.88;10412676;28;20264;-62
2023/03/22 01:40:52;;;;;;;5.40;3.90;;;;;;;7.53;100.00;96187.19;10395672;28;20195;-62
2023/03/22 01:45:53;;;;;;;5.50;3.83;;;;;;;7.40;100.00;96202.41;10394965;28;21058;-62
2023/03/22 01:51:02;;;;;;;4.60;3.90;;;;;;;7.27;100.00;96194.97;10413007;28;20192;-62
2023/03/22 01:56:06;;;;;;;7.57;3.77;;;;;;;7.19;100.00;96189.69;10394753;28;20643;-62
2023/03/22 02:01:08;;;;;;;5.63;3.77;;;;;;;6.96;100.00;96166.66;10376365;28;20201;-62
2023/03/22 02:06:18;;;;;;;5.57;3.10;;;;;;;7.09;100.00;96168.91;10354309;28;20242;-61
2023/03/22 02:11:32;;;;;;;6.80;3.73;;;;;;;6.86;100.00;96168.50;10353624;28;20204;-62
2023/03/22 02:16:54;;;;;;;5.43;3.27;;;;;;;6.78;100.00;96166.63;10337864;28;20235;-60
2023/03/22 02:22:22;;;;;;;6.57;3.60;;;;;;;6.57;100.00;96164.28;10359348;28;20223;-61
2023/03/22 02:27:46;;;;;;;4.80;3.27;;;;;;;6.58;100.00;96160.72;10410993;28;20580;-60
2023/03/22 02:32:46;;;;;;;5.77;3.63;;;;;;;6.33;100.00;96170.03;10393930;28;20838;-63
2023/03/22 02:38:13;;;;;;;6.33;3.70;;;;;;;6.42;100.00;96174.38;10416962;22;20236;-75
2023/03/22 02:43:37;;;;;;;7.70;3.83;;;;;;;6.28;100.00;96170.47;10431661;28;20208;-75
2023/03/22 02:48:53;;;;;;;4.27;3.27;;;;;;;6.15;100.00;96167.34;10428596;28;20254;-73
2023/03/22 02:54:08;;;;;;;10.67;4.00;;;;;;;5.92;100.00;96165.06;10407228;28;20208;-74
2023/03/22 02:59:11;;;;;;;9.53;4.37;;;;;;;5.82;100.00;96169.44;10407678;28;20197;-75
2023/03/22 03:04:16;;;;;;;165.30;65.53;;;;;;;5.84;100.00;96163.16;10374052;28;20189;-75
2023/03/22 03:09:18;;;;;;;73.00;37.20;;;;;;;5.55;100.00;96163.22;10373613;28;20653;-75
2023/03/22 03:14:31;;;;;;;6.83;4.37;;;;;;;5.48;100.00;96162.97;10390148;28;20637;-75
2023/03/22 03:19:42;;;;;;;9.43;5.33;;;;;;;5.71;100.00;96158.28;10390402;28;20554;-75
2023/03/22 03:24:58;;;;;;;7.23;4.13;;;;;;;5.59;100.00;96153.34;10389602;28;20732;-74
2023/03/22 03:30:11;;;;;;;9.53;4.80;;;;;;;5.49;100.00;96167.19;10373572;28;20735;-75
2023/03/22 03:35:24;;;;;;;10.83;6.53;;;;;;;5.44;100.00;96163.38;10373654;28;20275;-79
2023/03/22 03:40:35;;;;;;;9.70;6.37;;;;;;;5.28;100.00;96167.34;10397615;28;20232;-75
2023/03/22 03:45:36;;;;;;;7.20;4.60;;;;;;;5.08;100.00;96170.88;10381051;28;20199;-75
2023/03/22 03:50:36;;;;;;;5.90;4.23;;;;;;;4.95;100.00;96160.78;10417426;28;20294;-74
2023/03/22 03:55:37;;;;;;;11.43;5.27;;;;;;;5.00;100.00;96172.38;10495133;28;20211;-74
2023/03/22 04:00:38;;;;;;;7.63;4.60;;;;;;;5.03;100.00;96162.69;10462543;28;20198;-75
2023/03/22 04:05:56;;;;;;;10.40;5.67;;;;;;;4.93;100.00;96168.69;10438744;28;20285;-75
2023/03/22 04:10:56;;;;;;;7.53;4.60;;;;;;;4.95;100.00;96174.56;10430815;28;20682;-75
2023/03/22 04:16:00;;;;;;;8.27;4.17;;;;;;;4.85;100.00;96165.94;10429614;28;20208;-74
2023/03/22 04:21:02;;;;;;;5.70;4.17;;;;;;;4.80;100.00;96168.13;10429653;28;20643;-75
2023/03/22 04:26:07;;;;;;;8.00;5.30;;;;;;;4.61;100.00;96163.72;10413156;28;20186;-74
2023/03/22 04:31:18;;;;;;;11.80;6.27;;;;;;;4.60;100.00;96162.06;10445965;28;20247;-75
2023/03/22 04:36:24;;;;;;;14.20;9.50;;;;;;;4.59;100.00;96163.81;10429244;28;20250;-74
2023/03/22 04:41:56;;;;;;;21.83;12.83;;;;;;;4.52;100.00;96167.09;10432544;28;20239;-74
2023/03/22 04:46:57;;;;;;;36.13;22.00;;;;;;;4.39;100.00;96175.09;10428848;28;20333;-74
2023/03/22 04:51:57;;;;;;;20.90;12.60;;;;;;;4.30;100.00;96158.56;10429887;28;20211;-75
2023/03/22 04:57:04;;;;;;;10.63;5.57;;;;;;;4.32;100.00;96177.41;10427685;28;20700;-75
2023/03/22 05:02:11;;;;;;;15.20;7.23;;;;;;;4.58;100.00;96174.34;10447745;28;20195;-74
2023/03/22 05:07:15;;;;;;;8.93;6.13;;;;;;;4.79;100.00;96171.66;10457799;28;20188;-75
2023/03/22 05:12:27;;;;;;;22.20;11.47;;;;;;;4.90;100.00;96153.38;10476273;28;20332;-74
2023/03/22 05:17:48;;;;;;;15.37;9.73;;;;;;;4.89;100.00;96156.13;10476215;28;20191;-74
2023/03/22 05:22:49;;;;;;;11.10;7.50;;;;;;;5.23;100.00;96148.75;10475614;28;20624;-74
2023/03/22 05:27:53;;;;;;;19.77;10.47;;;;;;;5.13;100.00;96148.75;10475460;28;20591;-74
2023/03/22 05:33:08;;;;;;;18.67;11.57;;;;;;;5.35;100.00;96149.44;10473497;28;20320;-74
2023/03/22 05:38:15;;;;;;;11.60;7.93;;;;;;;5.52;100.00;96147.91;10489608;28;20272;-75
2023/03/22 05:43:20;;;;;;;18.93;10.70;;;;;;;5.67;100.00;96143.09;10455205;28;20616;-75
2023/03/22 05:48:23;;;;;;;15.77;8.57;;;;;;;5.74;100.00;96138.97;10433162;28;20215;-75
2023/03/22 05:53:24;;;;;;;13.73;8.37;;;;;;;6.05;100.00;96141.41;10433028;28;20762;-74
2023/03/22 05:58:30;;;;;;;15.77;9.20;;;;;;;6.36;100.00;96136.72;10432092;28;20196;-75
2023/03/22 06:03:32;;;;;;;13.47;7.87;;;;;;;6.68;100.00;96132.06;10432664;28;20215;-74
2023/03/22 06:08:49;;;;;;;11.33;8.40;;;;;;;6.87;100.00;96138.91;10431626;28;20562;-74
2023/03/22 06:13:49;;;;;;;12.10;7.57;;;;;;;7.24;100.00;96135.34;10450318;28;20218;-75
2023/03/22 06:18:52;;;;;;;10.53;6.90;;;;;;;7.61;100.00;96121.28;10431831;28;20191;-74
2023/03/22 06:23:52;;;;;;;10.10;5.70;;;;;;;8.41;100.00;96097.56;10444929;28;20188;-75
2023/03/22 06:28:55;;;;;;;9.17;4.73;;;;;;;8.79;100.00;96107.66;10437526;28;20196;-74
2023/03/22 06:33:55;;;;;;;11.17;5.77;;;;;;;9.02;100.00;96095.63;10423177;28;20703;-74
2023/03/22 06:39:10;;;;;;;6.67;5.23;;;;;;;9.19;100.00;96091.22;10436440;28;20250;-75
2023/03/22 06:44:12;;;;;;;9.50;6.27;;;;;;;9.30;100.00;96102.34;10436842;28;20198;-74
2023/03/22 06:49:27;;;;;;;11.07;6.50;;;;;;;9.22;100.00;96106.56;10423982;28;20551;-74
2023/03/22 06:54:29;;;;;;;14.43;6.37;;;;;;;9.18;100.00;96101.84;10447681;28;20212;-74
2023/03/22 06:59:29;;;;;;;10.67;6.63;;;;;;;9.18;100.00;96097.41;10435581;28;20567;-74
2023/03/22 07:04:31;;;;;;;8.27;5.37;;;;;;;9.19;100.00;96106.91;10436012;28;20395;-74
2023/03/22 07:09:32;;;;;;;9.73;6.10;;;;;;;9.43;100.00;96098.25;10448251;28;20667;-74
2023/03/22 07:14:33;;;;;;;10.07;6.50;;;;;;;9.42;100.00;96096.59;10447432;28;20364;-74
2023/03/22 07:19:49;;;;;;;9.07;5.77;;;;;;;9.64;98.56;96096.91;10480705;28;20198;-74
2023/03/22 07:24:53;;;;;;;7.93;5.13;;;;;;;9.90;94.53;96067.91;10480715;28;20595;-74
2023/03/22 07:29:54;;;;;;;8.47;4.80;;;;;;;9.86;93.32;96071.84;10480268;28;20571;-74
2023/03/22 07:34:55;;;;;;;6.80;4.30;;;;;;;10.32;90.82;96058.94;10479491;28;20221;-74
2023/03/22 07:39:56;;;;;;;8.57;3.80;;;;;;;10.31;87.96;96031.09;10478930;28;20227;-74
2023/03/22 07:44:59;;;;;;;7.43;3.17;;;;;;;10.31;87.64;96038.97;10479381;28;20241;-75
2023/03/22 07:49:59;;;;;;;3.60;2.80;;;;;;;10.99;82.21;95991.22;10456465;28;21051;-74
2023/03/22 07:55:04;;;;;;;2.83;2.40;;;;;;;11.42;79.00;95973.13;10435926;28;20593;-75
2023/03/22 08:00:09;;;;;;;3.45;2.55;;;;;;;11.50;77.78;95969.59;10435194;28;20203;-75
2023/03/22 08:05:28;;;;;;;5.97;2.95;;;;;;;11.37;76.74;95971.03;10436376;28;20333;-74
2023/03/22 08:10:34;;;;;;;4.43;2.42;;;;;;;11.61;73.85;95948.19;10435927;28;20559;-75
2023/03/22 08:15:36;;;;;;;3.30;2.00;;;;;;;12.06;71.97;95937.63;10454213;28;20216;-74
2023/03/22 08:20:37;;;;;;;6.43;2.90;;;;;;;11.85;73.99;95973.31;10435617;28;20187;-74
2023/03/22 08:25:42;;;;;;;5.20;2.60;;;;;;;12.24;72.42;95959.03;10432747;28;20191;-75
2023/03/22 08:30:46;;;;;;;2.45;1.80;;;;;;;13.03;68.89;95933.66;10436043;28;20184;-75
2023/03/22 08:35:47;;;;;;;2.22;1.60;;;;;;;12.47;71.56;95969.38;10435100;28;20259;-74
2023/03/22 08:40:47;;;;;;;2.03;1.73;;;;;;;12.43;72.32;95970.75;10434097;28;20306;-75
2023/03/22 08:45:51;;;;;;;3.78;1.60;;;;;;;13.07;69.75;95957.78;10435756;28;20192;-75
2023/03/22 08:50:53;;;;;;;4.43;1.80;;;;;;;12.52;69.94;95952.25;10435520;28;20194;-75
2023/03/22 08:56:02;;;;;;;2.72;1.60;;;;;;;12.49;69.09;95948.19;10419149;28;20274;-76
2023/03/22 09:01:19;;;;;;;1.52;1.27;;;;;;;13.09;69.60;95958.41;10421080;28;20187;-75
2023/03/22 09:06:31;;;;;;;1.00;1.00;;;;;;;13.32;65.50;95893.22;10434509;28;20195;-75
2023/03/22 09:11:32;;;;;;;1.58;1.10;;;;;;;13.71;64.30;95888.38;10435477;28;20199;-74
2023/03/22 09:16:33;;;;;;;1.73;1.13;;;;;;;14.16;64.10;95901.88;10434120;28;20328;-73
2023/03/22 09:21:35;;;;;;;1.10;1.00;;;;;;;13.57;64.33;95908.56;10432825;28;20204;-75
2023/03/22 09:26:46;;;;;;;1.45;1.00;;;;;;;13.96;65.61;95928.16;10432411;28;20275;-75
2023/03/22 09:31:50;;;;;;;1.42;1.20;;;;;;;13.16;67.36;95933.78;10431699;28;20227;-74
2023/03/22 09:36:54;;;;;;;2.58;1.20;;;;;;;13.29;66.93;95932.25;10430651;28;20598;-75
2023/03/22 09:42:01;;;;;;;2.92;1.00;;;;;;;13.27;66.50;95918.47;10398812;28;20257;-75
2023/03/22 09:47:04;;;;;;;2.65;1.40;;;;;;;13.07;65.73;95899.94;10391559;28;20656;-75
2023/03/22 09:52:12;;;;;;;1.38;1.02;;;;;;;12.81;67.00;95909.25;10410025;28;20195;-75
2023/03/22 09:57:37;;;;;;;1.58;1.00;;;;;;;13.40;66.42;95912.50;10391429;28;20227;-75
2023/03/22 10:02:45;;;;;;;1.25;1.10;;;;;;;12.85;66.60;95900.78;10391208;28;20189;-76
2023/03/22 10:08:22;;;;;;;3.45;1.10;;;;;;;14.06;64.68;95896.19;10417124;28;20220;-76
2023/03/22 10:13:43;;;;;;;2.20;1.30;;;;;;;13.39;65.69;95895.91;10409429;28;20258;-76
2023/03/22 10:18:47;;;;;;;2.47;1.30;;;;;;;13.80;66.59;95913.53;10449163;28;20191;-75
2023/03/22 10:24:01;;;;;;;2.85;1.48;;;;;;;14.18;64.01;95870.06;10443748;28;20722;-75
2023/03/22 10:29:23;;;;;;;2.17;1.40;;;;;;;12.98;67.93;95913.22;10392658;28;20704;-75
2023/03/22 10:34:28;;;;;;;2.10;1.35;;;;;;;13.26;65.73;95865.06;10409740;28;20640;-76
2023/03/22 10:39:33;;;;;;;3.15;1.10;;;;;;;14.55;63.85;95849.44;10439719;28;20604;-75
2023/03/22 10:45:00;;;;;;;1.83;1.30;;;;;;;15.98;61.00;95817.00;10448957;28;20545;-75
2023/03/22 10:50:04;;;;;;;2.13;1.10;;;;;;;16.91;57.99;95783.75;10447128;28;20215;-74
2023/03/22 10:55:12;;;;;;;1.02;0.93;;;;;;;16.66;56.46;95746.75;10445270;28;20711;-73
2023/03/22 11:00:16;;;;;;;1.25;1.15;;;;;;;16.28;55.45;95723.06;10447556;28;20624;-76
2023/03/22 11:05:21;;;;;;;0.82;0.82;;;;;;;15.47;57.76;95749.22;10447937;28;20307;-76
2023/03/22 11:10:33;;;;;;;1.73;1.15;;;;;;;14.69;59.42;95772.00;10425661;28;20201;-75
2023/03/22 11:15:38;;;;;;;3.47;1.10;;;;;;;15.64;57.82;95763.53;10442800;28;20219;-76
2023/03/22 11:20:51;;;;;;;1.80;1.10;;;;;;;15.54;57.12;95722.78;10447434;28;20191;-74
2023/03/22 11:26:24;;;;;;;6.40;1.30;;;;;;;16.16;56.04;95717.72;10428445;28;20697;-75
2023/03/22 11:31:25;;;;;;;1.80;1.20;;;;;;;16.69;55.84;95714.56;10407341;28;20208;-74
2023/03/22 11:36:26;;;;;;;2.45;1.20;;;;;;;15.44;58.19;95731.16;10388064;28;20574;-75
2023/03/22 11:41:29;;;;;;;1.23;0.95;;;;;;;15.29;56.87;95695.28;10388002;28;20213;-75
2023/03/22 11:46:30;;;;;;;1.58;0.85;;;;;;;16.58;55.50;95702.06;10399782;28;20235;-75
2023/03/22 11:51:34;;;;;;;0.80;0.80;;;;;;;16.29;52.13;95621.63;10428864;28;20192;-75
2023/03/22 11:56:39;;;;;;;2.28;0.95;;;;;;;15.44;56.70;95696.84;10446067;28;20357;-74
2023/03/22 12:01:44;;;;;;;1.45;1.00;;;;;;;16.43;52.98;95636.31;10453585;28;20196;-74
2023/03/22 12:06:45;;;;;;;1.10;0.85;;;;;;;16.07;55.38;95671.44;10435703;28;20192;-74
2023/03/22 12:11:46;;;;;;;1.27;0.98;;;;;;;15.40;55.55;95656.88;10452743;28;20195;-75
2023/03/22 12:16:50;;;;;;;1.05;0.90;;;;;;;16.13;55.20;95665.31;10451919;28;20254;-74
2023/03/22 12:21:50;;;;;;;1.75;0.95;;;;;;;16.27;54.61;95640.34;10452044;28;20652;-75
2023/03/22 12:26:56;;;;;;;1.55;1.10;;;;;;;16.32;55.58;95655.56;10435213;28;20187;-74
2023/03/22 12:32:09;;;;;;;1.73;0.95;;;;;;;16.28;54.59;95649.91;10425703;28;20922;-74
2023/03/22 12:37:14;;;;;;;2.63;0.88;;;;;;;17.24;51.97;95609.72;10403244;28;20232;-75
2023/03/22 12:42:23;;;;;;;3.85;1.50;;;;;;;16.61;53.19;95624.13;10411697;28;20696;-74
2023/03/22 12:47:27;;;;;;;2.78;0.85;;;;;;;17.01;51.96;95611.22;10394635;28;20185;-74
2023/03/22 12:52:34;;;;;;;1.30;1.00;;;;;;;17.27;50.20;95562.44;10434224;28;20286;-75
2023/03/22 12:57:34;;;;;;;2.58;1.10;;;;;;;16.37;52.47;95585.16;10451644;28;20468;-74
2023/03/22 13:02:35;;;;;;;1.40;1.10;;;;;;;16.00;52.64;95576.38;10432935;28;20188;-75
2023/03/22 13:08:04;;;;;;;3.00;1.33;;;;;;;16.34;51.66;95566.28;10426332;28;20196;-75
2023/03/22 13:13:20;;;;;;;2.75;1.20;;;;;;;17.20;48.57;95516.72;10451349;28;20275;-75
2023/03/22 13:18:36;;;;;;;1.88;1.10;;;;;;;17.22;51.92;95603.84;10451363;28;20235;-75
2023/03/22 13:23:51;;;;;;;4.40;1.20;;;;;;;17.78;47.98;95531.03;10448930;28;20253;-75
2023/03/22 13:28:59;;;;;;;1.17;0.98;;;;;;;16.53;49.24;95511.56;10450180;28;20564;-75
2023/03/22 13:34:02;;;;;;;3.42;1.33;;;;;;;15.64;51.32;95565.53;10449247;28;20214;-74
2023/03/22 13:39:08;;;;;;;3.25;1.50;;;;;;;16.28;49.74;95528.34;10448217;28;20301;-74
2023/03/22 13:44:25;;;;;;;2.22;1.25;;;;;;;16.65;51.37;95560.00;10449982;28;20599;-75
2023/03/22 13:49:44;;;;;;;3.38;1.40;;;;;;;16.31;52.10;95554.31;10450020;28;20278;-75
2023/03/22 13:54:47;;;;;;;2.45;1.38;;;;;;;16.00;53.23;95566.66;10449334;28;20220;-75
2023/03/22 13:59:59;;;;;;;2.58;1.35;;;;;;;15.47;52.47;95538.88;10431849;28;20577;-75
2023/03/22 14:05:15;;;;;;;1.67;1.30;;;;;;;15.80;50.50;95506.13;10431867;28;20188;-74
2023/03/22 14:10:20;;;;;;;1.27;1.17;;;;;;;15.75;51.26;95518.31;10449994;28;20183;-75
2023/03/22 14:15:41;;;;;;;1.15;1.10;;;;;;;15.67;51.59;95527.31;10431111;28;20216;-75
2023/03/22 14:20:42;;;;;;;4.22;1.38;;;;;;;15.64;51.01;95499.53;10430348;28;20264;-74
2023/03/22 14:25:45;;;;;;;1.60;1.13;;;;;;;15.69;49.78;95481.19;10425024;28;20717;-75
2023/03/22 14:30:45;;;;;;;2.38;1.40;;;;;;;15.29;49.19;95449.91;10403762;28;20208;-76
2023/03/22 14:35:49;;;;;;;1.83;1.30;;;;;;;15.48;50.65;95482.44;10410791;28;20563;-76
2023/03/22 14:40:49;;;;;;;2.72;1.15;;;;;;;15.80;49.40;95469.13;10405229;28;20239;-76
2023/03/22 14:46:02;;;;;;;1.70;1.10;;;;;;;16.23;50.00;95494.66;10413755;28;20618;-77
2023/03/22 14:51:07;;;;;;;1.52;1.25;;;;;;;16.29;49.28;95479.72;10425875;28;20271;-76
2023/03/22 14:56:18;;;;;;;1.52;1.20;;;;;;;17.37;48.05;95481.66;10417579;28;20302;-76
2023/03/22 15:01:29;;;;;;;1.55;1.10;;;;;;;17.79;48.11;95495.56;10445876;28;20283;-75
2023/03/22 15:06:31;;;;;;;3.78;1.40;;;;;;;16.87;47.21;95440.50;10447975;28;20600;-75
2023/03/22 15:11:31;;;;;;;1.40;1.30;;;;;;;15.88;49.12;95460.13;10447833;28;20243;-76
2023/03/22 15:16:33;;;;;;;1.70;1.30;;;;;;;16.93;46.11;95423.72;10446961;28;20330;-76
2023/03/22 15:21:37;;;;;;;1.10;1.00;;;;;;;18.52;43.05;95400.50;10430988;28;20184;-75
2023/03/22 15:26:39;;;;;;;3.42;1.02;;;;;;;17.31;44.28;95387.28;10448610;28;20191;-75
2023/03/22 15:31:43;;;;;;;1.75;1.00;;;;;;;17.26;45.67;95420.53;10450968;28;20200;-76
2023/03/22 15:36:48;;;;;;;3.08;1.40;;;;;;;17.72;44.73;95409.31;10456493;28;20259;-76
2023/03/22 15:41:59;;;;;;;1.35;1.15;;;;;;;16.16;46.83;95412.00;10456163;28;20224;-76
2023/03/22 15:47:14;;;;;;;2.58;1.38;;;;;;;17.90;43.95;95411.03;10438626;28;20196;-76
2023/03/22 15:52:21;;;;;;;2.38;1.38;;;;;;;18.38;41.32;95359.44;10456042;28;20210;-75
2023/03/22 15:57:40;;;;;;;1.10;1.00;;;;;;;16.78;42.85;95336.84;10454855;28;20281;-75
2023/03/22 16:03:12;;;;;;;3.08;1.48;;;;;;;15.85;45.48;95386.63;10455256;28;20203;-75
2023/03/22 16:08:14;;;;;;;1.00;0.90;;;;;;;16.02;45.77;95414.00;10455057;28;20927;-74
2023/03/22 16:13:22;;;;;;;3.65;1.60;;;;;;;15.18;47.59;95424.25;10452251;28;20211;-76
2023/03/22 16:18:23;;;;;;;4.18;2.78;;;;;;;15.38;47.73;95431.16;10452569;28;20582;-76
2023/03/22 16:23:24;;;;;;;2.97;1.92;;;;;;;14.69;49.12;95454.88;10436477;28;20195;-75
2023/03/22 16:28:24;;;;;;;4.90;4.10;;;;;;;14.70;49.33;95454.66;10451569;28;20219;-76
2023/03/22 16:33:46;;;;;;;2.30;2.10;;;;;;;14.92;48.69;95452.44;10436773;28;20290;-75
2023/03/22 16:38:47;;;;;;;1.30;1.20;;;;;;;14.43;49.48;95457.41;10454378;28;20718;-75
2023/03/22 16:43:48;;;;;;;4.95;2.00;;;;;;;14.07;52.12;95502.75;10452719;28;20216;-76
2023/03/22 16:48:48;;;;;;;1.58;1.48;;;;;;;13.50;55.05;95563.03;10452601;28;20667;-75
2023/03/22 16:53:49;;;;;;;3.83;2.05;;;;;;;13.29;55.76;95564.81;10453857;28;20223;-75
2023/03/22 16:58:50;;;;;;;1.60;1.50;;;;;;;12.72;59.09;95622.13;10452827;28;20640;-75
2023/03/22 17:03:51;;;;;;;3.03;1.60;;;;;;;12.46;59.37;95630.72;10452279;28;20195;-75
2023/03/22 17:08:51;;;;;;;1.67;1.58;;;;;;;12.12;60.85;95642.84;10434696;28;20202;-75
2023/03/22 17:13:52;;;;;;;1.80;1.60;;;;;;;12.07;59.64;95617.19;10452315;28;20208;-75
2023/03/22 17:18:55;;;;;;;2.55;1.40;;;;;;;11.70;61.19;95655.03;10436359;28;20195;-75
2023/03/22 17:23:56;;;;;;;2.92;1.50;;;;;;;11.44;62.23;95664.31;10454239;28;20192;-75
2023/03/22 17:28:56;;;;;;;4.43;1.90;;;;;;;10.96;64.43;95690.22;10453615;28;20614;-75
2023/03/22 17:33:57;;;;;;;3.75;1.90;;;;;;;10.49;66.77;95721.03;10454100;28;20212;-75
2023/03/22 17:38:57;;;;;;;3.40;3.10;;;;;;;10.47;66.83;95733.50;10453364;28;20239;-75
2023/03/22 17:43:57;;;;;;;3.63;2.50;;;;;;;10.17;68.41;95757.81;10453449;28;20184;-75
2023/03/22 17:49:45;;;;;;;2.90;2.10;;;;;;;9.73;70.70;95813.44;10435070;28;20274;-75
2023/03/22 18:00:51;;;;;;;42.07;23.37;;;;;;;9.68;72.18;95838.47;10453614;28;20192;-75
2023/03/22 18:05:52;;;;;;;47.83;22.90;;;;;;;9.42;74.04;95843.03;10434534;28;20188;-74
2023/03/22 18:10:53;;;;;;;5.73;3.13;;;;;;;9.62;72.98;95830.34;10452257;28;20303;-75
2023/03/22 18:15:53;;;;;;;28.43;11.23;;;;;;;9.64;72.99;95830.16;10451853;28;20222;-74
2023/03/22 18:21:00;;;;;;;11.43;7.77;;;;;;;9.77;73.67;95847.88;10451387;28;20222;-74
2023/03/22 18:26:03;;;;;;;10.47;4.20;;;;;;;9.43;75.52;95869.97;10450660;28;20188;-74
2023/03/22 18:31:03;;;;;;;3.17;2.83;;;;;;;9.34;75.24;95869.22;10450696;28;20282;-75
2023/03/22 18:36:05;;;;;;;5.47;3.43;;;;;;;9.09;77.40;95882.31;10450313;28;20599;-75
2023/03/22 18:41:07;;;;;;;7.80;3.83;;;;;;;9.00;78.35;95885.16;10449840;28;20203;-75
2023/03/22 18:46:09;;;;;;;16.03;14.03;;;;;;;8.90;78.76;95891.38;10450462;28;20194;-74
2023/03/22 18:51:10;;;;;;;6.10;5.13;;;;;;;9.03;77.44;95866.53;10450321;28;20641;-75
2023/03/22 18:56:11;;;;;;;4.03;3.00;;;;;;;9.26;75.90;95845.69;10449309;28;20238;-75
2023/03/22 19:01:11;;;;;;;6.27;2.83;;;;;;;9.19;74.81;95837.72;10450153;28;20274;-74
2023/03/22 19:06:14;;;;;;;4.40;2.23;;;;;;;9.15;75.27;95844.28;10449574;28;20183;-75
2023/03/22 19:11:15;;;;;;;5.77;3.70;;;;;;;9.02;75.71;95851.81;10412195;28;20203;-75
2023/03/22 19:16:17;;;;;;;4.43;2.80;;;;;;;9.01;75.96;95855.44;10412892;28;20743;-75
2023/03/22 19:21:17;;;;;;;7.53;3.17;;;;;;;8.92;76.86;95865.09;10425273;28;20215;-75
2023/03/22 19:26:18;;;;;;;8.00;2.40;;;;;;;8.87;76.94;95857.75;10426418;28;20197;-75
2023/03/22 19:31:18;;;;;;;4.37;3.30;;;;;;;9.07;76.59;95852.16;10422634;28;20216;-76
2023/03/22 19:36:19;;;;;;;4.13;3.37;;;;;;;9.14;75.91;95840.00;10423895;28;20224;-75
2023/03/22 19:41:19;;;;;;;3.03;2.27;;;;;;;9.21;75.45;95840.97;10428318;28;20212;-75
2023/03/22 19:46:20;;;;;;;3.37;2.13;;;;;;;9.35;74.32;95831.59;10443428;28;20184;-75
2023/03/22 19:51:20;;;;;;;3.97;2.50;;;;;;;9.31;75.12;95842.56;10448842;28;20187;-75
2023/03/22 19:56:20;;;;;;;3.83;2.20;;;;;;;9.31;75.08;95842.56;10435936;28;20215;-74
2023/03/22 20:01:21;;;;;;;4.50;2.00;;;;;;;9.17;75.22;95841.50;10428505;28;20279;-74
2023/03/22 20:06:21;;;;;;;3.60;2.20;;;;;;;9.20;75.36;95849.00;10431161;28;20192;-75
2023/03/22 20:11:21;;;;;;;2.47;1.70;;;;;;;9.13;75.79;95855.88;10429023;28;21013;-75
2023/03/22 20:16:22;;;;;;;1.77;1.60;;;;;;;9.03;76.00;95853.47;10424936;28;20707;-74
2023/03/22 20:21:23;;;;;;;6.27;2.00;;;;;;;9.07;75.91;95839.09;10416882;28;20733;-74
2023/03/22 20:26:23;;;;;;;4.47;2.10;;;;;;;8.93;76.90;95857.06;10432718;28;20177;-74
2023/03/22 20:31:23;;;;;;;4.13;1.70;;;;;;;9.16;75.95;95839.84;10447265;28;20249;-74
2023/03/22 20:36:24;;;;;;;5.27;2.17;;;;;;;9.08;76.35;95848.53;10432140;28;20235;-75
2023/03/22 20:41:25;;;;;;;4.43;2.20;;;;;;;8.70;79.01;95867.41;10454266;28;20204;-75
2023/03/22 20:46:25;;;;;;;9.83;2.40;;;;;;;8.82;78.40;95844.38;10437456;28;20257;-74
2023/03/22 20:51:27;;;;;;;3.90;2.23;;;;;;;9.03;77.26;95829.94;10454654;28;20295;-75
2023/03/22 20:56:31;;;;;;;5.40;1.77;;;;;;;9.07;77.33;95820.78;10454268;28;20637;-75
2023/03/22 21:01:39;;;;;;;3.27;1.73;;;;;;;9.34;76.26;95810.88;10454880;28;20549;-75
2023/03/22 21:06:41;;;;;;;3.27;1.77;;;;;;;9.25;76.20;95813.53;10453628;28;20180;-75
2023/03/22 21:11:41;;;;;;;7.50;1.80;;;;;;;9.18;76.89;95820.41;10448066;28;20188;-75
2023/03/22 21:16:42;;;;;;;2.58;1.90;;;;;;;9.52;75.36;95794.94;10417593;28;20205;-75
2023/03/22 21:21:44;;;;;;;1.60;1.50;;;;;;;9.88;73.87;95782.09;10407492;28;20201;-75
2023/03/22 21:26:45;;;;;;;5.33;1.80;;;;;;;9.89;73.42;95777.69;10412195;28;20188;-75
2023/03/22 21:31:45;;;;;;;2.37;1.40;;;;;;;9.99;73.57;95767.81;10411861;28;20653;-75
2023/03/22 21:36:47;;;;;;;6.57;1.73;;;;;;;10.06;73.05;95762.66;10411393;28;20351;-74
2023/03/22 21:41:47;;;;;;;4.57;1.60;;;;;;;10.08;72.84;95769.34;10411668;28;20213;-75
2023/03/22 21:46:48;;;;;;;2.57;1.57;;;;;;;10.21;72.35;95765.31;10393722;28;20200;-74
2023/03/22 21:51:48;;;;;;;2.50;1.40;;;;;;;10.33;72.03;95749.03;10408753;28;20338;-75
2023/03/22 21:56:49;;;;;;;1.38;1.27;;;;;;;10.58;70.19;95738.31;10404205;28;20232;-75
2023/03/22 22:01:51;;;;;;;1.35;1.25;;;;;;;10.59;70.69;95750.41;10406848;28;20316;-74
2023/03/22 22:06:52;;;;;;;3.08;1.35;;;;;;;10.78;70.18;95733.34;10409873;28;20215;-74
2023/03/22 22:11:53;;;;;;;5.60;1.38;;;;;;;10.44;73.69;95773.16;10410946;28;20242;-75
2023/03/22 22:16:54;;;;;;;4.03;1.40;;;;;;;10.14;76.28;95780.94;10392560;28;20220;-74
2023/03/22 22:21:55;;;;;;;1.65;1.40;;;;;;;10.44;73.50;95739.13;10411345;28;20683;-74
2023/03/22 22:26:56;;;;;;;2.53;1.40;;;;;;;10.54;73.06;95739.66;10404641;28;20192;-75
2023/03/22 22:31:56;;;;;;;2.30;1.70;;;;;;;10.73;71.98;95706.88;10393959;28;20612;-74
2023/03/22 22:36:56;;;;;;;2.60;1.23;;;;;;;10.89;70.75;95700.63;10411752;28;20240;-74
2023/03/22 22:41:57;;;;;;;2.67;1.27;;;;;;;11.04;70.32;95692.72;10409802;28;20557;-75
2023/03/22 22:46:57;;;;;;;3.60;1.50;;;;;;;11.13;71.46;95724.88;10410088;28;20678;-75
2023/03/22 22:51:57;;;;;;;2.95;1.60;;;;;;;11.05;72.96;95768.53;10410084;28;20704;-75
2023/03/22 22:56:58;;;;;;;2.15;1.35;;;;;;;10.94;74.08;95782.13;10409869;28;20692;-75
2023/03/22 23:01:58;;;;;;;1.73;1.42;;;;;;;10.95;75.04;95782.91;10419629;28;20210;-76
2023/03/22 23:06:59;;;;;;;3.40;1.40;;;;;;;10.81;77.25;95808.13;10412969;28;20216;-75
2023/03/22 23:11:59;;;;;;;1.15;1.00;;;;;;;10.77;77.29;95801.66;10409600;28;20199;-76
2023/03/22 23:17:00;;;;;;;3.40;1.38;;;;;;;10.75;77.07;95793.97;10409083;28;21006;-75
2023/03/22 23:22:02;;;;;;;2.40;1.50;;;;;;;10.61;80.07;95829.63;10409813;28;20212;-76
2023/03/22 23:27:02;;;;;;;7.47;1.50;;;;;;;10.50;80.41;95822.19;10409165;28;20185;-76
2023/03/22 23:32:03;;;;;;;3.55;1.33;;;;;;;10.40;81.95;95806.75;10409436;28;20203;-75
2023/03/22 23:37:09;;;;;;;2.87;1.20;;;;;;;10.45;81.13;95798.34;10408751;28;20259;-75
2023/03/22 23:42:11;;;;;;;1.40;1.30;;;;;;;10.48;80.79;95788.31;10408985;28;20216;-75